Time,TemperatureF,DewpointF,PressureIn,WindDirection,WindDirectionDegrees,WindSpeedMPH,WindSpeedGustMPH,Humidity,HourlyPrecipIn,Conditions,Clouds,dailyrainin,SolarRadiationWatts/m^2,SoftwareType,DateUTC
2013-04-04 00:03:00,48.0,27.0,30.52,NE,48,7.0,9.0,44,0.00,,,0.00,0.000000,,2013-04-04 04:03:00,
2013-04-04 00:13:00,48.0,27.0,30.52,NE,48,7.0,9.0,44,0.00,,,0.00,0.000000,,2013-04-04 04:13:00,
2013-04-04 00:43:00,50.0,18.0,30.51,NE,43,7.0,15.0,28,0.00,,,0.00,0.000000,,2013-04-04 04:43:00,
2013-04-04 00:53:00,50.0,18.0,30.51,NE,43,7.0,15.0,28,0.00,,,0.00,0.000000,,2013-04-04 04:53:00,
2013-04-04 01:02:00,50.0,18.0,30.51,NE,43,7.0,15.0,28,0.00,,,0.00,0.000000,,2013-04-04 05:02:00,
2013-04-04 01:13:00,50.0,18.0,30.51,NE,43,7.0,15.0,28,0.00,,,0.00,0.000000,,2013-04-04 05:13:00,
2013-04-04 01:32:00,48.0,13.0,30.51,NE,46,9.0,19.0,24,0.00,,,0.00,0.000000,,2013-04-04 05:32:00,
2013-04-04 01:42:00,48.0,13.0,30.51,NE,46,9.0,19.0,24,0.00,,,0.00,0.000000,,2013-04-04 05:42:00,
2013-04-04 01:53:00,48.0,13.0,30.51,NE,46,9.0,19.0,24,0.00,,,0.00,0.000000,,2013-04-04 05:53:00,
2013-04-04 02:03:00,48.0,13.0,30.51,NE,46,9.0,19.0,24,0.00,,,0.00,0.000000,,2013-04-04 06:03:00,
2013-04-04 02:12:00,48.0,13.0,30.51,NE,46,9.0,19.0,24,0.00,,,0.00,0.000000,,2013-04-04 06:12:00,
2013-04-04 02:43:00,48.0,12.0,30.50,NE,46,8.0,19.0,23,0.00,,,0.00,0.000000,,2013-04-04 06:43:00,
2013-04-04 02:53:00,48.0,12.0,30.50,NE,46,8.0,19.0,23,0.00,,,0.00,0.000000,,2013-04-04 06:53:00,
2013-04-04 03:02:00,48.0,12.0,30.50,NE,46,8.0,19.0,23,0.00,,,0.00,0.000000,,2013-04-04 07:02:00,
2013-04-04 03:12:00,48.0,12.0,30.50,NE,46,8.0,19.0,23,0.00,,,0.00,0.000000,,2013-04-04 07:12:00,
2013-04-04 03:43:00,45.0,10.0,30.51,NE,53,8.0,15.0,24,0.00,,,0.00,0.000000,,2013-04-04 07:43:00,
2013-04-04 03:53:00,45.0,10.0,30.51,NE,53,8.0,15.0,24,0.00,,,0.00,0.000000,,2013-04-04 07:53:00,
2013-04-04 04:03:00,45.0,10.0,30.51,NE,53,8.0,15.0,24,0.00,,,0.00,0.000000,,2013-04-04 08:03:00,
2013-04-04 04:12:00,45.0,10.0,30.51,NE,53,8.0,15.0,24,0.00,,,0.00,0.000000,,2013-04-04 08:12:00,
2013-04-04 04:44:00,44.0,11.0,30.51,NE,45,10.0,23.0,26,0.00,,,0.00,0.000000,,2013-04-04 08:44:00,
2013-04-04 04:53:00,44.0,11.0,30.51,NE,45,10.0,23.0,26,0.00,,,0.00,0.000000,,2013-04-04 08:53:00,
2013-04-04 05:03:00,44.0,11.0,30.51,NE,45,10.0,23.0,26,0.00,,,0.00,0.000000,,2013-04-04 09:03:00,
2013-04-04 05:13:00,44.0,11.0,30.51,NE,45,10.0,23.0,26,0.00,,,0.00,0.000000,,2013-04-04 09:13:00,
2013-04-04 05:44:00,42.0,14.0,30.51,NE,45,11.0,24.0,31,0.00,,,0.00,0.000000,,2013-04-04 09:44:00,
2013-04-04 05:54:00,42.0,14.0,30.51,NE,45,11.0,24.0,31,0.00,,,0.00,0.000000,,2013-04-04 09:54:00,
2013-04-04 06:04:00,42.0,14.0,30.51,NE,45,11.0,24.0,31,0.00,,,0.00,0.000000,,2013-04-04 10:04:00,
2013-04-04 06:12:00,42.0,14.0,30.51,NE,45,11.0,24.0,31,0.00,,,0.00,0.000000,,2013-04-04 10:12:00,
2013-04-04 06:43:00,43.0,17.0,30.53,NE,55,11.0,21.0,34,0.00,,,0.00,0.000000,,2013-04-04 10:43:00,
2013-04-04 06:54:00,43.0,17.0,30.53,NE,55,11.0,21.0,34,0.00,,,0.00,0.000000,,2013-04-04 10:54:00,
2013-04-04 07:03:00,43.0,17.0,30.53,NE,55,11.0,21.0,34,0.00,,,0.00,0.000000,,2013-04-04 11:03:00,
2013-04-04 07:12:00,43.0,17.0,30.53,NE,55,11.0,21.0,34,0.00,,,0.00,0.000000,,2013-04-04 11:12:00,
2013-04-04 07:33:00,41.0,19.0,30.54,NE,52,10.0,18.0,40,0.00,,,0.00,0.000000,,2013-04-04 11:33:00,
2013-04-04 07:43:00,41.0,19.0,30.54,NE,52,10.0,18.0,40,0.00,,,0.00,0.000000,,2013-04-04 11:43:00,
2013-04-04 07:55:00,41.0,19.0,30.54,NE,52,10.0,18.0,40,0.00,,,0.00,0.000000,,2013-04-04 11:55:00,
2013-04-04 08:03:00,41.0,19.0,30.54,NE,52,10.0,18.0,40,0.00,,,0.00,0.000000,,2013-04-04 12:03:00,
2013-04-04 08:12:00,41.0,19.0,30.54,NE,52,10.0,18.0,40,0.00,,,0.00,0.000000,,2013-04-04 12:12:00,
2013-04-04 08:44:00,41.0,22.0,30.56,ENE,59,8.0,20.0,46,0.00,,,0.00,21.000000,,2013-04-04 12:44:00,
2013-04-04 08:53:00,41.0,22.0,30.56,ENE,59,8.0,20.0,46,0.00,,,0.00,21.000000,,2013-04-04 12:53:00,
2013-04-04 09:03:00,41.0,22.0,30.56,ENE,59,8.0,20.0,46,0.00,,,0.00,21.000000,,2013-04-04 13:03:00,
2013-04-04 09:12:00,41.0,22.0,30.56,ENE,59,8.0,20.0,46,0.00,,,0.00,21.000000,,2013-04-04 13:12:00,
2013-04-04 09:43:00,43.0,26.0,30.52,ENE,60,11.0,22.0,50,0.00,,,0.00,62.000000,,2013-04-04 13:43:00,
2013-04-04 09:53:00,43.0,26.0,30.52,ENE,60,11.0,22.0,50,0.00,,,0.00,62.000000,,2013-04-04 13:53:00,
2013-04-04 10:03:00,43.0,26.0,30.52,ENE,60,11.0,22.0,50,0.00,,,0.00,62.000000,,2013-04-04 14:03:00,
2013-04-04 10:13:00,43.0,26.0,30.52,ENE,60,11.0,22.0,50,0.00,,,0.00,62.000000,,2013-04-04 14:13:00,
2013-04-04 10:43:00,42.0,26.0,30.54,ENE,62,10.0,22.0,53,0.00,,,0.00,136.000000,,2013-04-04 14:43:00,
2013-04-04 10:53:00,42.0,26.0,30.54,ENE,62,10.0,22.0,53,0.00,,,0.00,136.000000,,2013-04-04 14:53:00,
2013-04-04 11:03:00,42.0,26.0,30.54,ENE,62,10.0,22.0,53,0.00,,,0.00,136.000000,,2013-04-04 15:03:00,
2013-04-04 11:13:00,42.0,26.0,30.54,ENE,62,10.0,22.0,53,0.00,,,0.00,136.000000,,2013-04-04 15:13:00,
2013-04-04 11:43:00,42.0,33.0,30.51,ENE,66,9.0,18.0,69,0.02,,,0.02,150.000000,,2013-04-04 15:43:00,
2013-04-04 11:54:00,42.0,33.0,30.51,ENE,66,9.0,18.0,69,0.02,,,0.02,150.000000,,2013-04-04 15:54:00,
2013-04-04 12:03:00,42.0,33.0,30.51,ENE,66,9.0,18.0,69,0.02,,,0.02,150.000000,,2013-04-04 16:03:00,
2013-04-04 12:13:00,42.0,33.0,30.51,ENE,66,9.0,18.0,69,0.02,,,0.02,150.000000,,2013-04-04 16:13:00,
2013-04-04 12:43:00,44.0,31.0,30.48,ENE,61,8.0,18.0,59,0.00,,,0.02,285.000000,,2013-04-04 16:43:00,
2013-04-04 12:55:00,44.0,31.0,30.48,ENE,61,8.0,18.0,59,0.00,,,0.02,285.000000,,2013-04-04 16:55:00,
2013-04-04 13:03:00,44.0,31.0,30.48,ENE,61,8.0,18.0,59,0.00,,,0.02,285.000000,,2013-04-04 17:03:00,
2013-04-04 13:14:00,44.0,31.0,30.48,ENE,61,8.0,18.0,59,0.00,,,0.02,285.000000,,2013-04-04 17:14:00,
2013-04-04 13:43:00,41.0,33.0,30.46,NE,54,6.0,18.0,72,0.02,,,0.04,176.000000,,2013-04-04 17:43:00,
2013-04-04 13:53:00,41.0,33.0,30.46,NE,54,6.0,18.0,72,0.02,,,0.04,176.000000,,2013-04-04 17:53:00,
2013-04-04 14:02:00,41.0,33.0,30.46,NE,54,6.0,18.0,72,0.02,,,0.04,176.000000,,2013-04-04 18:02:00,
2013-04-04 14:12:00,41.0,33.0,30.46,NE,54,6.0,18.0,72,0.02,,,0.04,176.000000,,2013-04-04 18:12:00,
2013-04-04 14:43:00,40.0,37.0,30.45,NNE,20,7.0,14.0,90,0.11,,,0.15,68.000000,,2013-04-04 18:43:00,
2013-04-04 14:53:00,40.0,37.0,30.45,NNE,20,7.0,14.0,90,0.11,,,0.15,68.000000,,2013-04-04 18:53:00,
2013-04-04 15:02:00,40.0,37.0,30.45,NNE,20,7.0,14.0,90,0.11,,,0.15,68.000000,,2013-04-04 19:02:00,
2013-04-04 15:12:00,40.0,37.0,30.45,NNE,20,7.0,14.0,90,0.11,,,0.15,68.000000,,2013-04-04 19:12:00,
2013-04-04 15:43:00,39.0,37.0,30.44,North,1,7.0,15.0,91,0.09,,,0.24,62.000000,,2013-04-04 19:43:00,
2013-04-04 15:53:00,39.0,37.0,30.44,North,1,7.0,15.0,91,0.09,,,0.24,62.000000,,2013-04-04 19:53:00,
2013-04-04 16:04:00,39.0,37.0,30.44,North,1,7.0,15.0,91,0.09,,,0.24,62.000000,,2013-04-04 20:04:00,
2013-04-04 16:12:00,39.0,37.0,30.44,North,1,7.0,15.0,91,0.09,,,0.24,62.000000,,2013-04-04 20:12:00,
2013-04-04 16:42:00,37.0,35.0,30.38,NNE,19,9.0,20.0,91,0.08,,,0.32,87.000000,,2013-04-04 20:42:00,
2013-04-04 16:53:00,37.0,35.0,30.38,NNE,19,9.0,20.0,91,0.08,,,0.32,87.000000,,2013-04-04 20:53:00,
2013-04-04 17:02:00,37.0,35.0,30.38,NNE,19,9.0,20.0,91,0.08,,,0.32,87.000000,,2013-04-04 21:02:00,
2013-04-04 17:12:00,37.0,35.0,30.38,NNE,19,9.0,20.0,91,0.08,,,0.32,87.000000,,2013-04-04 21:12:00,
2013-04-04 17:43:00,37.0,35.0,30.32,NE,38,13.0,25.0,94,0.06,,,0.38,37.000000,,2013-04-04 21:43:00,
2013-04-04 17:53:00,37.0,35.0,30.32,NE,38,13.0,25.0,94,0.06,,,0.38,37.000000,,2013-04-04 21:53:00,
2013-04-04 18:04:00,37.0,35.0,30.32,NE,38,13.0,25.0,94,0.06,,,0.38,37.000000,,2013-04-04 22:04:00,
2013-04-04 18:12:00,37.0,35.0,30.32,NE,38,13.0,25.0,94,0.06,,,0.38,37.000000,,2013-04-04 22:12:00,
2013-04-04 18:34:00,37.0,35.0,30.33,North,5,12.0,27.0,94,0.07,,,0.45,34.000000,,2013-04-04 22:34:00,
2013-04-04 18:43:00,37.0,35.0,30.33,North,5,12.0,27.0,94,0.07,,,0.45,34.000000,,2013-04-04 22:43:00,
2013-04-04 18:53:00,37.0,35.0,30.33,North,5,12.0,27.0,94,0.07,,,0.45,34.000000,,2013-04-04 22:53:00,
2013-04-04 19:03:00,37.0,35.0,30.33,North,5,12.0,27.0,94,0.07,,,0.45,34.000000,,2013-04-04 23:03:00,
2013-04-04 19:13:00,37.0,35.0,30.33,North,5,12.0,27.0,94,0.07,,,0.45,34.000000,,2013-04-04 23:13:00,
2013-04-04 19:43:00,35.0,34.0,30.28,North,11,9.0,23.0,98,0.07,,,0.52,6.000000,,2013-04-04 23:43:00,
2013-04-04 19:53:00,35.0,34.0,30.28,North,11,9.0,23.0,98,0.07,,,0.52,6.000000,,2013-04-04 23:53:00,
2013-04-04 20:02:00,35.0,34.0,30.28,North,11,9.0,23.0,98,0.07,,,0.52,6.000000,,2013-04-05 00:02:00,
2013-04-04 20:12:00,35.0,34.0,30.28,North,11,9.0,23.0,98,0.07,,,0.52,6.000000,,2013-04-05 00:12:00,
2013-04-04 20:43:00,35.0,34.0,30.27,NNE,23,9.0,19.0,98,0.09,,,0.61,3.000000,,2013-04-05 00:43:00,
2013-04-04 20:52:00,35.0,34.0,30.27,NNE,23,9.0,19.0,98,0.09,,,0.61,3.000000,,2013-04-05 00:52:00,
2013-04-04 21:03:00,35.0,34.0,30.27,NNE,23,9.0,19.0,98,0.09,,,0.61,3.000000,,2013-04-05 01:03:00,
2013-04-04 21:12:00,35.0,34.0,30.27,NNE,23,9.0,19.0,98,0.09,,,0.61,3.000000,,2013-04-05 01:12:00,
2013-04-04 21:42:00,35.0,34.0,30.24,NNE,23,9.0,20.0,97,0.07,,,0.68,0.000000,,2013-04-05 01:42:00,
2013-04-04 21:54:00,35.0,34.0,30.24,NNE,23,9.0,20.0,97,0.07,,,0.68,0.000000,,2013-04-05 01:54:00,
2013-04-04 22:03:00,35.0,34.0,30.24,NNE,23,9.0,20.0,97,0.07,,,0.68,0.000000,,2013-04-05 02:03:00,
2013-04-04 22:12:00,35.0,34.0,30.24,NNE,23,9.0,20.0,97,0.07,,,0.68,0.000000,,2013-04-05 02:12:00,
2013-04-04 22:42:00,35.0,34.0,30.24,NNE,13,8.0,19.0,98,0.06,,,0.74,0.000000,,2013-04-05 02:42:00,
2013-04-04 22:52:00,35.0,34.0,30.24,NNE,13,8.0,19.0,98,0.06,,,0.74,0.000000,,2013-04-05 02:52:00,
2013-04-04 23:02:00,35.0,34.0,30.24,NNE,13,8.0,19.0,98,0.06,,,0.74,0.000000,,2013-04-05 03:02:00,
2013-04-04 23:12:00,35.0,34.0,30.24,NNE,13,8.0,19.0,98,0.06,,,0.74,0.000000,,2013-04-05 03:12:00,
2013-04-04 23:43:00,35.0,34.0,30.21,NNE,15,7.0,16.0,98,0.06,,,0.80,0.000000,,2013-04-05 03:43:00,
2013-04-04 23:55:00,35.0,34.0,30.21,NNE,15,7.0,16.0,98,0.06,,,0.80,0.000000,,2013-04-05 03:55:00,